createdAt,value
2023-01-22T00:00:23.708Z,7.38
2023-01-22T00:02:50.824Z,5.80
2023-01-22T00:05:24.353Z,6.90
2023-01-22T00:07:51.637Z,6.97
2023-01-22T00:10:25.636Z,7.15
2023-01-22T00:12:59.467Z,5.95
2023-01-22T00:15:33.497Z,6.25
2023-01-22T00:18:07.294Z,6.93
2023-01-22T00:20:34.522Z,7.20
2023-01-22T00:23:01.695Z,7.40
2023-01-22T00:25:35.354Z,7.43
2023-01-22T00:28:02.439Z,7.78
2023-01-22T00:30:36.391Z,8.05
2023-01-22T00:33:03.486Z,8.00
2023-01-22T00:35:30.697Z,7.38
2023-01-22T00:38:05.441Z,7.25
2023-01-22T00:40:32.693Z,7.88
2023-01-22T00:43:06.541Z,6.85
2023-01-22T00:45:34.139Z,7.78
2023-01-22T00:48:01.581Z,8.02
2023-01-22T00:53:03.905Z,8.10
2023-01-22T00:55:37.575Z,7.20
2023-01-22T00:58:04.743Z,7.45
2023-01-22T01:00:31.881Z,8.48
2023-01-22T01:03:24.644Z,7.82
2023-01-22T01:05:51.852Z,7.43
2023-01-22T01:08:18.953Z,7.22
2023-01-22T01:10:52.348Z,8.10
2023-01-22T01:13:26.918Z,7.68
2023-01-22T01:16:11.392Z,6.80
2023-01-22T01:18:38.554Z,7.05
2023-01-22T01:21:14.369Z,7.40
2023-01-22T01:23:42.856Z,7.63
2023-01-22T01:26:18.447Z,7.35
2023-01-22T01:28:45.751Z,7.60
2023-01-22T01:31:13.888Z,7.38
2023-01-22T01:33:48.363Z,8.00
2023-01-22T01:36:35.490Z,8.23
2023-01-22T01:39:13.519Z,7.30
2023-01-22T01:41:40.741Z,7.63
2023-01-22T01:44:12.643Z,6.13
2023-01-22T01:46:55.474Z,7.70
2023-01-22T01:49:32.326Z,7.32
2023-01-22T01:52:01.858Z,8.43
2023-01-22T01:54:29.643Z,6.15
2023-01-22T01:57:12.426Z,5.47
2023-01-22T01:59:39.696Z,7.70
2023-01-22T02:02:13.417Z,7.90
2023-01-22T02:04:40.641Z,7.40
2023-01-22T02:07:14.536Z,8.95
2023-01-22T02:09:41.733Z,7.50
2023-01-22T02:12:23.379Z,7.57
2023-01-22T02:14:50.823Z,8.07
2023-01-22T02:19:51.375Z,7.88
2023-01-22T02:22:20.709Z,8.48
2023-01-22T02:24:54.573Z,8.70
2023-01-22T02:27:21.947Z,8.98
2023-01-22T02:32:36.397Z,8.73
2023-01-22T02:35:03.647Z,8.75
2023-01-22T02:37:38.372Z,8.63
2023-01-22T02:40:05.723Z,8.75
2023-01-22T02:42:32.880Z,8.52
2023-01-22T02:45:06.755Z,8.68
2023-01-22T02:47:35.951Z,7.72
2023-01-22T02:50:10.493Z,8.75
2023-01-22T02:52:37.659Z,8.40
2023-01-22T02:55:05.436Z,9.00
2023-01-22T02:57:39.344Z,8.23
2023-01-22T03:00:06.730Z,8.30
2023-01-22T03:05:07.835Z,8.10
2023-01-22T03:07:51.376Z,5.45
2023-01-22T03:10:19.926Z,7.90
2023-01-22T03:13:19.382Z,8.23
2023-01-22T03:16:04.997Z,7.90
2023-01-22T03:18:58.400Z,6.88
2023-01-22T03:21:25.610Z,8.88
2023-01-22T03:23:53.965Z,9.65
2023-01-22T03:26:28.429Z,9.30
2023-01-22T03:28:55.596Z,9.55
2023-01-22T03:31:29.599Z,9.90
2023-01-22T03:33:57.108Z,9.95
2023-01-22T03:36:24.207Z,9.63
2023-01-22T03:38:58.455Z,10.13
2023-01-22T03:41:25.661Z,9.38
2023-01-22T03:44:00.486Z,9.88
2023-01-22T03:46:28.078Z,9.93
2023-01-22T03:48:55.272Z,10.57
2023-01-22T03:51:29.460Z,9.85
2023-01-22T03:53:56.626Z,11.30
2023-01-22T03:56:30.393Z,10.85
2023-01-22T03:58:57.628Z,10.35
2023-01-22T04:01:26.128Z,10.13
2023-01-22T04:04:00.368Z,10.13
2023-01-22T04:06:27.920Z,10.85
2023-01-22T04:09:02.496Z,10.60
2023-01-22T04:11:36.370Z,10.00
2023-01-22T04:14:16.416Z,10.27
2023-01-22T04:16:50.510Z,10.23
2023-01-22T04:19:17.772Z,10.15
2023-01-22T04:21:45.214Z,10.30
2023-01-22T04:24:19.448Z,11.13
2023-01-22T04:26:46.751Z,10.10
2023-01-22T04:29:13.884Z,7.75
2023-01-22T04:31:47.493Z,8.90
2023-01-22T04:34:14.698Z,7.32
2023-01-22T04:36:48.532Z,9.50
2023-01-22T04:39:15.771Z,9.30
2023-01-22T04:41:42.880Z,11.23
2023-01-22T04:44:16.403Z,11.30
2023-01-22T04:46:43.652Z,10.65
2023-01-22T04:49:17.670Z,10.98
2023-01-22T04:51:44.834Z,11.45
2023-01-22T04:54:11.916Z,10.95
2023-01-22T04:56:45.790Z,11.95
2023-01-22T04:59:12.961Z,8.00
2023-01-22T05:01:46.487Z,11.15
2023-01-22T05:04:14.037Z,11.05
2023-01-22T05:06:41.272Z,11.75
2023-01-22T05:09:15.410Z,8.18
2023-01-22T05:11:49.379Z,9.15
2023-01-22T05:14:30.557Z,9.80
2023-01-22T05:16:57.668Z,10.13
2023-01-22T05:19:25.000Z,6.28
2023-01-22T05:24:25.576Z,9.45
2023-01-22T05:26:59.403Z,10.25
2023-01-22T05:29:27.171Z,10.60
2023-01-22T05:31:54.659Z,10.43
2023-01-22T05:34:28.369Z,11.27
2023-01-22T05:36:55.582Z,11.13
2023-01-22T05:39:29.642Z,11.45
2023-01-22T05:41:56.805Z,11.88
2023-01-22T05:44:24.070Z,11.43
2023-01-22T05:46:57.484Z,11.45
2023-01-22T05:49:24.663Z,10.88
2023-01-22T05:51:58.532Z,10.52
2023-01-22T05:54:25.718Z,11.85
2023-01-22T05:56:52.797Z,11.75
2023-01-22T05:59:26.531Z,11.10
2023-01-22T06:01:54.264Z,10.82
2023-01-22T06:04:21.344Z,10.63
2023-01-22T06:06:55.370Z,11.45
2023-01-22T06:09:22.662Z,10.95
2023-01-22T06:11:56.412Z,11.43
2023-01-22T06:14:23.723Z,10.98
2023-01-22T06:16:57.538Z,9.98
2023-01-22T06:19:24.715Z,10.38
2023-01-22T06:21:51.792Z,10.45
2023-01-22T06:24:25.497Z,8.85
2023-01-22T06:26:52.670Z,8.70
2023-01-22T06:29:26.403Z,9.30
2023-01-22T06:31:53.687Z,9.15
2023-01-22T06:34:20.895Z,8.98
2023-01-22T06:36:54.411Z,9.77
2023-01-22T06:39:21.646Z,10.25
2023-01-22T06:41:55.630Z,10.35
2023-01-22T06:44:23.177Z,10.80
2023-01-22T06:46:50.348Z,10.30
2023-01-22T06:49:24.395Z,11.55
2023-01-22T06:51:51.581Z,10.30
2023-01-22T06:54:25.546Z,9.98
2023-01-22T06:56:52.717Z,9.75
2023-01-22T06:59:19.873Z,8.65
2023-01-22T07:01:53.453Z,7.85
2023-01-22T07:04:20.778Z,6.80
2023-01-22T07:06:54.520Z,5.68
2023-01-22T07:09:21.685Z,8.15
2023-01-22T07:12:04.532Z,9.40
2023-01-22T07:14:38.354Z,8.63
2023-01-22T07:17:12.415Z,10.43
2023-01-22T07:19:46.332Z,11.32
2023-01-22T07:22:13.592Z,11.98
2023-01-22T07:24:47.352Z,10.57
2023-01-22T07:27:14.577Z,11.93
2023-01-22T07:29:41.819Z,7.10
2023-01-22T07:32:15.405Z,12.70
2023-01-22T07:34:42.659Z,10.43
2023-01-22T07:37:17.638Z,11.05
2023-01-22T07:39:44.804Z,11.07
2023-01-22T07:42:12.733Z,11.68
2023-01-22T07:44:49.455Z,11.55
2023-01-22T07:47:16.652Z,11.82
2023-01-22T07:49:43.823Z,10.48
2023-01-22T07:52:17.407Z,11.57
2023-01-22T07:54:44.699Z,11.27
2023-01-22T07:57:22.770Z,10.68
2023-01-22T08:02:17.300Z,10.85
2023-01-22T08:04:51.456Z,12.05
2023-01-22T08:07:19.293Z,11.73
2023-01-22T08:09:46.467Z,10.70
2023-01-22T08:12:20.411Z,11.45
2023-01-22T08:14:47.590Z,9.48
2023-01-22T08:17:21.519Z,11.93
2023-01-22T08:19:48.761Z,10.38
2023-01-22T08:22:15.844Z,11.95
2023-01-22T08:27:16.589Z,10.90
2023-01-22T08:29:50.581Z,10.98
2023-01-22T08:32:18.956Z,11.60
2023-01-22T08:34:46.222Z,8.35
2023-01-22T08:37:20.482Z,13.82
2023-01-22T08:39:47.681Z,12.35
2023-01-22T08:42:21.527Z,12.52
2023-01-22T08:44:48.667Z,11.45
2023-01-22T08:47:15.903Z,11.60
2023-01-22T08:49:49.398Z,12.90
2023-01-22T08:52:16.700Z,12.02
2023-01-22T08:54:50.520Z,10.98
2023-01-22T08:57:17.692Z,13.07
2023-01-22T08:59:52.592Z,12.68
2023-01-22T09:02:34.397Z,11.80
2023-01-22T09:05:01.490Z,12.98
2023-01-22T09:07:35.570Z,12.50
2023-01-22T09:10:03.895Z,11.65
2023-01-22T09:12:44.565Z,12.88
2023-01-22T09:15:18.346Z,10.43
2023-01-22T09:17:52.635Z,9.93
2023-01-22T09:20:20.180Z,11.07
2023-01-22T09:22:48.058Z,12.18
2023-01-22T09:25:22.446Z,10.52
2023-01-22T09:27:49.613Z,9.80
2023-01-22T09:30:23.699Z,10.82
2023-01-22T09:32:50.920Z,10.77
2023-01-22T09:35:18.013Z,10.98
2023-01-22T09:37:51.644Z,7.45
2023-01-22T09:40:32.197Z,10.00
2023-01-22T09:43:11.577Z,10.45
2023-01-22T09:45:39.578Z,9.80
2023-01-22T09:48:09.512Z,12.77
2023-01-22T09:50:43.411Z,11.20
2023-01-22T09:53:21.475Z,11.07
2023-01-22T09:55:51.696Z,10.30
2023-01-22T09:58:21.089Z,10.25
2023-01-22T10:01:00.128Z,10.43
2023-01-22T10:03:31.163Z,10.35
2023-01-22T10:06:07.551Z,9.63
2023-01-22T10:08:37.942Z,10.63
2023-01-22T10:11:05.529Z,9.68
2023-01-22T10:13:40.630Z,9.18
2023-01-22T10:16:08.155Z,9.85
2023-01-22T10:18:37.696Z,10.88
2023-01-22T10:21:14.431Z,9.68
2023-01-22T10:23:41.703Z,9.52
2023-01-22T10:26:23.558Z,8.85
2023-01-22T10:28:52.168Z,10.25
2023-01-22T10:31:36.549Z,10.05
2023-01-22T10:34:05.127Z,9.48
2023-01-22T10:36:39.457Z,10.07
2023-01-22T10:39:09.440Z,9.23
2023-01-22T10:41:43.579Z,9.82
2023-01-22T10:44:11.624Z,9.73
2023-01-22T10:46:45.403Z,9.52
2023-01-22T10:49:16.237Z,10.13
2023-01-22T10:51:52.432Z,9.00
2023-01-22T10:54:21.516Z,6.93
2023-01-22T10:56:55.483Z,7.18
2023-01-22T10:59:24.148Z,7.93
2023-01-22T11:02:04.510Z,8.43
2023-01-22T11:04:33.203Z,7.50
2023-01-22T11:07:13.465Z,8.80
2023-01-22T11:09:42.738Z,8.70
2023-01-22T11:12:28.454Z,9.10
2023-01-22T11:15:05.933Z,8.80
2023-01-22T11:17:51.479Z,8.23
2023-01-22T11:20:44.173Z,8.70
2023-01-22T11:23:17.569Z,8.77
2023-01-22T11:25:46.044Z,8.73
2023-01-22T11:28:31.473Z,8.88
2023-01-22T11:30:58.746Z,9.07
2023-01-22T11:33:49.541Z,8.68
2023-01-22T11:36:22.935Z,9.07
2023-01-22T11:39:00.423Z,8.57
2023-01-22T11:41:40.923Z,9.35
2023-01-22T11:44:14.438Z,8.90
2023-01-22T11:46:41.680Z,8.75
2023-01-22T11:49:18.461Z,8.07
2023-01-22T11:51:48.729Z,7.97
2023-01-22T11:54:28.588Z,8.27
2023-01-22T11:57:10.807Z,8.27
2023-01-22T11:59:49.520Z,8.50
2023-01-22T12:02:33.405Z,7.95
2023-01-22T12:05:23.323Z,7.82
2023-01-22T12:08:09.370Z,8.27
2023-01-22T12:10:42.791Z,9.40
2023-01-22T12:13:19.423Z,7.80
2023-01-22T12:16:11.675Z,8.20
2023-01-22T12:18:48.376Z,7.65
2023-01-22T12:21:32.275Z,7.82
2023-01-22T12:24:22.369Z,8.20
2023-01-22T12:26:54.907Z,8.25
2023-01-22T12:29:49.368Z,8.30
2023-01-22T12:32:19.363Z,9.27
2023-01-22T12:34:55.378Z,8.00
2023-01-22T12:37:25.707Z,8.48
2023-01-22T12:39:59.368Z,8.75
2023-01-22T12:42:35.051Z,8.23
2023-01-22T12:45:17.558Z,7.90
2023-01-22T12:47:51.254Z,8.88
2023-01-22T12:50:26.369Z,8.27
2023-01-22T12:52:59.281Z,8.77
2023-01-22T12:55:44.490Z,8.57
2023-01-22T12:58:31.524Z,8.27
2023-01-22T13:01:09.453Z,8.30
2023-01-22T13:03:36.849Z,8.13
2023-01-22T13:08:45.011Z,8.40
2023-01-22T13:11:33.389Z,8.45
2023-01-22T13:14:15.531Z,7.75
2023-01-22T13:16:57.373Z,7.63
2023-01-22T13:19:26.268Z,9.05
2023-01-22T13:22:00.512Z,7.18
2023-01-22T13:24:27.717Z,7.28
2023-01-22T13:26:57.153Z,7.80
2023-01-22T13:29:32.515Z,6.35
2023-01-22T13:32:01.236Z,6.82
2023-01-22T13:34:35.488Z,7.57
2023-01-22T13:37:02.783Z,7.53
2023-01-22T13:39:37.680Z,8.13
2023-01-22T13:42:05.858Z,7.65
2023-01-22T13:44:58.460Z,8.40
2023-01-22T13:47:30.177Z,7.63
2023-01-22T13:50:04.563Z,7.70
2023-01-22T13:52:33.554Z,7.60
2023-01-22T13:55:07.481Z,7.28
2023-01-22T13:57:34.726Z,7.20
2023-01-22T14:00:09.735Z,6.25
2023-01-22T14:02:36.930Z,8.48
2023-01-22T14:05:04.538Z,8.07
2023-01-22T14:07:43.583Z,8.07
2023-01-22T14:10:16.376Z,8.93
2023-01-22T14:13:29.841Z,8.43
2023-01-22T14:15:59.454Z,8.10
2023-01-22T14:18:36.593Z,8.90
2023-01-22T14:21:03.875Z,8.63
2023-01-22T14:23:31.118Z,7.85
2023-01-22T14:26:05.524Z,8.68
2023-01-22T14:28:33.629Z,7.50
2023-01-22T14:31:07.653Z,7.80
2023-01-22T14:33:35.292Z,8.32
2023-01-22T14:36:02.598Z,7.57
2023-01-22T14:38:36.578Z,8.18
2023-01-22T14:41:04.284Z,7.75
2023-01-22T14:43:38.634Z,8.25
2023-01-22T14:46:09.373Z,8.43
2023-01-22T14:48:36.555Z,8.02
2023-01-22T14:51:15.245Z,7.82
2023-01-22T14:53:42.552Z,8.23
2023-01-22T14:56:09.711Z,7.90
2023-01-22T14:58:43.599Z,8.13
2023-01-22T15:01:22.458Z,7.90
2023-01-22T15:03:56.596Z,8.25
2023-01-22T15:06:26.993Z,7.97
2023-01-22T15:08:54.260Z,8.13
2023-01-22T15:11:27.469Z,7.60
2023-01-22T15:14:08.422Z,7.95
2023-01-22T15:16:42.514Z,7.32
2023-01-22T15:19:18.409Z,7.78
2023-01-22T15:21:45.861Z,8.80
2023-01-22T15:24:12.962Z,8.45
2023-01-22T15:26:46.555Z,8.57
2023-01-22T15:29:21.409Z,8.02
2023-01-22T15:31:55.529Z,7.45
2023-01-22T15:34:30.568Z,8.05
2023-01-22T15:37:04.485Z,7.60
2023-01-22T15:39:38.470Z,8.40
2023-01-22T15:42:05.939Z,8.50
2023-01-22T15:44:39.411Z,7.82
2023-01-22T15:47:07.087Z,9.68
2023-01-22T15:49:41.424Z,10.13
2023-01-22T15:52:15.500Z,8.50
2023-01-22T15:54:49.407Z,8.85
2023-01-22T15:57:23.722Z,8.65
2023-01-22T15:59:51.553Z,9.32
2023-01-22T16:02:18.812Z,8.80
2023-01-22T16:04:52.564Z,9.40
2023-01-22T16:07:19.713Z,9.32
2023-01-22T16:09:53.842Z,8.68
2023-01-22T16:12:27.448Z,8.65
2023-01-22T16:15:07.715Z,8.05
2023-01-22T16:17:34.887Z,8.65
2023-01-22T16:20:02.111Z,9.65
2023-01-22T16:22:35.621Z,8.35
2023-01-22T16:25:02.882Z,9.63
2023-01-22T16:27:30.226Z,8.70
2023-01-22T16:32:30.703Z,9.13
2023-01-22T16:35:04.673Z,9.20
2023-01-22T16:37:31.875Z,9.27
2023-01-22T16:39:58.955Z,9.40
2023-01-22T16:42:32.475Z,9.98
2023-01-22T16:44:59.681Z,10.57
2023-01-22T16:47:33.523Z,8.50
2023-01-22T16:50:00.854Z,8.38
2023-01-22T16:55:01.856Z,8.30
2023-01-22T16:57:28.966Z,9.20
2023-01-22T17:00:02.510Z,9.70
2023-01-22T17:02:36.437Z,9.70
2023-01-22T17:05:10.632Z,9.32
2023-01-22T17:07:37.792Z,9.88
2023-01-22T17:10:05.014Z,9.45
2023-01-22T17:12:38.594Z,9.73
2023-01-22T17:15:19.424Z,9.38
2023-01-22T17:17:46.633Z,9.15
2023-01-22T17:20:20.877Z,9.00
2023-01-22T17:22:48.200Z,8.98
2023-01-22T17:25:15.345Z,8.48
2023-01-22T17:27:49.484Z,7.93
2023-01-22T17:30:18.133Z,8.77
2023-01-22T17:32:52.594Z,9.13
2023-01-22T17:35:20.032Z,8.88
2023-01-22T17:37:54.537Z,9.00
2023-01-22T17:40:21.713Z,9.57
2023-01-22T17:42:48.809Z,10.40
2023-01-22T17:45:22.519Z,9.40
2023-01-22T17:47:49.750Z,9.85
2023-01-22T17:50:23.652Z,9.70
2023-01-22T17:52:50.789Z,10.18
2023-01-22T17:55:18.251Z,10.40
2023-01-22T17:57:52.623Z,10.18
2023-01-22T18:00:20.150Z,9.40
2023-01-22T18:02:47.274Z,10.15
2023-01-22T18:05:20.867Z,10.23
2023-01-22T18:07:48.385Z,10.30
2023-01-22T18:10:22.968Z,10.63
2023-01-22T18:13:09.446Z,11.32
2023-01-22T18:15:43.600Z,11.00
2023-01-22T18:18:10.823Z,12.00
2023-01-22T18:20:37.936Z,11.63
2023-01-22T18:23:11.527Z,10.48
2023-01-22T18:25:47.293Z,10.52
2023-01-22T18:28:21.750Z,11.50
2023-01-22T18:30:49.295Z,11.45
2023-01-22T18:33:18.832Z,11.93
2023-01-22T18:35:53.485Z,10.77
2023-01-22T18:38:25.042Z,10.60
2023-01-22T18:40:59.636Z,10.50
2023-01-22T18:43:26.778Z,9.93
2023-01-22T18:45:53.862Z,10.07
2023-01-22T18:48:28.551Z,9.57
2023-01-22T18:50:55.816Z,11.35
2023-01-22T18:53:29.664Z,12.90
2023-01-22T18:56:00.469Z,15.05
2023-01-22T18:58:36.496Z,9.95
2023-01-22T19:01:15.611Z,11.18
2023-01-22T19:03:50.567Z,9.63
2023-01-22T19:06:18.768Z,10.48
2023-01-22T19:09:10.635Z,9.70
2023-01-22T19:11:38.869Z,10.43
2023-01-22T19:14:20.483Z,11.10
2023-01-22T19:16:56.454Z,10.93
2023-01-22T19:19:30.498Z,14.15
2023-01-22T19:22:04.476Z,12.60
2023-01-22T19:24:39.509Z,10.63
2023-01-22T19:27:08.110Z,10.80
2023-01-22T19:29:41.679Z,10.63
2023-01-22T19:32:14.861Z,10.43
2023-01-22T19:34:49.555Z,10.63
2023-01-22T19:37:16.906Z,10.38
2023-01-22T19:42:17.560Z,10.95
2023-01-22T19:44:45.406Z,10.05
2023-01-22T19:47:20.629Z,11.00
2023-01-22T19:49:47.874Z,11.07
2023-01-22T19:52:14.960Z,9.80
2023-01-22T19:54:49.818Z,10.25
2023-01-22T19:57:17.011Z,9.30
2023-01-22T19:59:44.237Z,10.07
2023-01-22T20:02:21.791Z,9.75
2023-01-22T20:04:48.970Z,17.23
2023-01-22T20:07:16.145Z,10.18
2023-01-22T20:09:49.515Z,10.25
2023-01-22T20:12:16.732Z,9.15
2023-01-22T20:14:50.514Z,9.70
2023-01-22T20:17:24.535Z,9.38
2023-01-22T20:19:58.670Z,9.13
2023-01-22T20:22:25.898Z,8.82
2023-01-22T20:24:53.010Z,9.30
2023-01-22T20:27:26.563Z,9.23
2023-01-22T20:30:22.462Z,8.48
2023-01-22T20:32:56.737Z,8.52
2023-01-22T20:35:23.974Z,8.98
2023-01-22T20:37:51.210Z,7.78
2023-01-22T20:40:24.605Z,8.13
2023-01-22T20:42:52.007Z,9.43
2023-01-22T20:47:52.866Z,9.02
2023-01-22T20:50:20.011Z,10.30
2023-01-22T20:52:53.532Z,9.70
2023-01-22T20:55:21.037Z,9.05
2023-01-22T20:57:54.638Z,9.45
2023-01-22T21:00:21.837Z,9.50
2023-01-22T21:02:50.537Z,7.50
2023-01-22T21:05:24.573Z,8.50
2023-01-22T21:07:51.725Z,8.90
